createdAt,value
2023-03-17T14:47:18.578Z,93941.00
2023-03-17T14:51:18.773Z,93935.00
2023-03-17T14:55:18.770Z,93935.00
2023-03-17T14:59:18.775Z,93931.00
2023-03-17T15:03:18.774Z,93926.00
2023-03-17T15:07:18.800Z,93922.00
2023-03-17T15:11:18.797Z,93920.00
2023-03-17T15:15:18.791Z,93918.00
2023-03-17T15:19:18.281Z,93912.00
2023-03-17T15:23:18.288Z,93908.00
2023-03-17T15:27:18.271Z,93914.00
2023-03-17T15:39:18.350Z,93906.00
2023-03-17T15:43:18.280Z,93906.00
2023-03-17T15:47:18.251Z,93910.00
2023-03-17T15:51:18.229Z,93908.00
2023-03-17T15:55:18.202Z,93906.00
2023-03-17T15:59:18.158Z,93910.00
2023-03-17T16:03:18.134Z,93906.00
2023-03-17T16:07:18.076Z,93908.00
2023-03-17T16:19:17.999Z,93912.00
2023-03-17T20:51:19.393Z,94092.00
2023-03-17T20:55:19.346Z,94092.00
2023-03-17T20:59:19.309Z,94094.00
2023-03-17T21:03:19.392Z,94094.00
2023-03-17T21:07:19.245Z,94102.00
2023-03-17T21:11:19.203Z,94102.00
2023-03-17T21:15:19.172Z,94102.00
2023-03-17T21:19:19.232Z,94106.00
2023-03-17T21:23:19.475Z,94110.00
2023-03-17T21:27:19.684Z,94112.00
2023-03-17T21:31:19.832Z,94112.00
2023-03-17T21:35:19.847Z,94112.00
2023-03-17T21:39:19.918Z,94116.00
2023-03-17T21:43:20.114Z,94120.00
2023-03-17T21:47:20.101Z,94129.00
2023-03-17T21:51:20.059Z,94131.00
2023-03-17T21:55:20.009Z,94133.00
2023-03-17T21:59:19.975Z,94137.00
2023-03-17T22:03:20.018Z,94141.00
2023-03-17T22:07:19.920Z,94145.00
2023-03-17T22:11:19.895Z,94151.00
2023-03-17T22:15:19.821Z,94153.00
2023-03-17T22:19:21.298Z,94157.00
2023-03-17T22:23:19.752Z,94159.00
2023-03-17T22:27:19.724Z,94155.00
2023-03-17T22:31:19.690Z,94157.00
2023-03-17T22:35:19.665Z,94159.00
2023-03-17T22:39:19.735Z,94155.00
2023-03-17T22:43:19.919Z,94165.00
2023-03-17T22:47:20.095Z,94165.00
2023-03-17T22:51:20.434Z,94169.00
2023-03-17T22:55:20.435Z,94173.00
2023-03-17T22:59:20.466Z,94175.00
2023-03-17T23:03:21.009Z,94175.00
2023-03-17T23:07:20.959Z,94175.00
2023-03-17T23:11:20.960Z,94178.00
2023-03-17T23:15:21.040Z,94184.00
2023-03-17T23:19:20.964Z,94188.00
2023-03-17T23:23:20.578Z,94198.00
2023-03-17T23:27:20.546Z,94196.00
2023-03-17T23:31:20.577Z,94196.00
2023-03-17T23:35:20.477Z,94198.00
2023-03-17T23:39:20.432Z,94202.00
2023-03-17T23:43:20.382Z,94204.00
2023-03-17T23:47:20.471Z,94208.00
2023-03-17T23:51:20.453Z,94212.00
2023-03-17T23:55:20.471Z,94218.00
2023-03-17T23:59:20.330Z,94220.00
